sensor_id;sensor_type;location;lat;lon;timestamp;pressure;altitude;pressure_sealevel;temperature;humidity
967;BME280;56108;48.730;9.304;2023-04-10T00:01:43;98131.50;;;5.52;82.80
967;BME280;56108;48.730;9.304;2023-04-10T00:03:51;98131.75;;;5.46;82.28
967;BME280;56108;48.730;9.304;2023-04-10T00:06:00;98127.16;;;5.51;82.53
967;BME280;56108;48.730;9.304;2023-04-10T00:08:08;98130.78;;;5.48;84.14
967;BME280;56108;48.730;9.304;2023-04-10T00:10:16;98129.78;;;5.51;83.30
967;BME280;56108;48.730;9.304;2023-04-10T00:12:27;98122.91;;;5.47;84.91
967;BME280;56108;48.730;9.304;2023-04-10T00:14:35;98125.97;;;5.36;85.86
967;BME280;56108;48.730;9.304;2023-04-10T00:16:43;98120.28;;;5.25;87.52
967;BME280;56108;48.730;9.304;2023-04-10T00:18:51;98126.59;;;5.21;87.24
967;BME280;56108;48.730;9.304;2023-04-10T00:20:59;98117.22;;;5.14;88.43
967;BME280;56108;48.730;9.304;2023-04-10T00:23:06;98116.84;;;5.23;86.56
967;BME280;56108;48.730;9.304;2023-04-10T00:25:14;98116.72;;;5.26;86.35
967;BME280;56108;48.730;9.304;2023-04-10T00:27:22;98112.69;;;5.17;87.87
967;BME280;56108;48.730;9.304;2023-04-10T00:29:32;98114.50;;;5.15;87.86
967;BME280;56108;48.730;9.304;2023-04-10T00:31:40;98111.56;;;5.23;87.79
967;BME280;56108;48.730;9.304;2023-04-10T00:33:48;98114.06;;;5.26;87.94
967;BME280;56108;48.730;9.304;2023-04-10T00:35:59;98107.25;;;5.20;87.90
967;BME280;56108;48.730;9.304;2023-04-10T00:38:07;98110.41;;;5.08;87.51
967;BME280;56108;48.730;9.304;2023-04-10T00:40:15;98107.88;;;5.05;87.78
967;BME280;56108;48.730;9.304;2023-04-10T00:42:22;98108.84;;;5.03;88.55
967;BME280;56108;48.730;9.304;2023-04-10T00:44:33;98106.41;;;4.98;89.08
967;BME280;56108;48.730;9.304;2023-04-10T00:46:42;98105.06;;;5.10;88.63
967;BME280;56108;48.730;9.304;2023-04-10T00:48:51;98109.66;;;5.05;88.81
967;BME280;56108;48.730;9.304;2023-04-10T00:50:59;98107.16;;;5.02;89.19
967;BME280;56108;48.730;9.304;2023-04-10T00:53:07;98102.41;;;5.10;89.43
967;BME280;56108;48.730;9.304;2023-04-10T00:55:15;98106.41;;;4.98;89.31
967;BME280;56108;48.730;9.304;2023-04-10T00:57:23;98102.22;;;4.92;90.51
967;BME280;56108;48.730;9.304;2023-04-10T00:59:35;98096.50;;;4.81;89.88
967;BME280;56108;48.730;9.304;2023-04-10T01:01:43;98094.59;;;4.85;89.93
967;BME280;56108;48.730;9.304;2023-04-10T01:03:51;98094.66;;;4.83;90.02
967;BME280;56108;48.730;9.304;2023-04-10T01:06:07;98095.75;;;4.78;91.27
967;BME280;56108;48.730;9.304;2023-04-10T01:08:24;98099.25;;;4.78;90.60
967;BME280;56108;48.730;9.304;2023-04-10T01:10:45;98090.66;;;4.73;91.54
967;BME280;56108;48.730;9.304;2023-04-10T01:13:14;98097.81;;;4.69;90.80
967;BME280;56108;48.730;9.304;2023-04-10T01:15:27;98087.41;;;4.66;91.10
967;BME280;56108;48.730;9.304;2023-04-10T01:17:42;98096.94;;;4.69;90.94
967;BME280;56108;48.730;9.304;2023-04-10T01:20:01;98091.75;;;4.67;90.66
967;BME280;56108;48.730;9.304;2023-04-10T01:22:13;98092.34;;;4.76;89.97
967;BME280;56108;48.730;9.304;2023-04-10T01:24:36;98103.66;;;4.78;89.17
967;BME280;56108;48.730;9.304;2023-04-10T01:27:08;98101.28;;;4.71;90.63
967;BME280;56108;48.730;9.304;2023-04-10T01:29:20;98107.22;;;4.77;89.92
967;BME280;56108;48.730;9.304;2023-04-10T01:31:36;98101.38;;;4.68;90.43
967;BME280;56108;48.730;9.304;2023-04-10T01:33:47;98105.03;;;4.64;90.73
967;BME280;56108;48.730;9.304;2023-04-10T01:36:00;98105.09;;;4.63;91.12
967;BME280;56108;48.730;9.304;2023-04-10T01:38:10;98100.81;;;4.60;91.52
967;BME280;56108;48.730;9.304;2023-04-10T01:40:20;98104.56;;;4.53;91.71
967;BME280;56108;48.730;9.304;2023-04-10T01:42:30;98106.31;;;4.54;91.67
967;BME280;56108;48.730;9.304;2023-04-10T01:44:45;98107.81;;;4.61;92.13
967;BME280;56108;48.730;9.304;2023-04-10T01:46:54;98103.03;;;4.48;93.44
967;BME280;56108;48.730;9.304;2023-04-10T01:49:04;98098.84;;;4.42;93.42
967;BME280;56108;48.730;9.304;2023-04-10T01:51:13;98099.88;;;4.38;93.32
967;BME280;56108;48.730;9.304;2023-04-10T01:53:22;98096.66;;;4.30;94.71
967;BME280;56108;48.730;9.304;2023-04-10T01:55:32;98101.25;;;4.25;95.50
967;BME280;56108;48.730;9.304;2023-04-10T01:57:43;98091.50;;;4.27;95.42
967;BME280;56108;48.730;9.304;2023-04-10T01:59:56;98093.03;;;4.32;94.46
967;BME280;56108;48.730;9.304;2023-04-10T02:02:04;98095.41;;;4.40;93.78
967;BME280;56108;48.730;9.304;2023-04-10T02:04:15;98089.28;;;4.39;93.39
967;BME280;56108;48.730;9.304;2023-04-10T02:06:28;98086.06;;;4.31;94.03
967;BME280;56108;48.730;9.304;2023-04-10T02:08:47;98079.72;;;4.37;93.67
967;BME280;56108;48.730;9.304;2023-04-10T02:11:03;98076.63;;;4.26;94.51
967;BME280;56108;48.730;9.304;2023-04-10T02:13:14;98081.09;;;4.24;94.84
967;BME280;56108;48.730;9.304;2023-04-10T02:15:30;98077.59;;;4.23;95.12
967;BME280;56108;48.730;9.304;2023-04-10T02:17:39;98078.31;;;4.27;94.94
967;BME280;56108;48.730;9.304;2023-04-10T02:19:50;98078.50;;;4.22;95.25
967;BME280;56108;48.730;9.304;2023-04-10T02:22:10;98073.91;;;4.27;94.76
967;BME280;56108;48.730;9.304;2023-04-10T02:24:19;98074.59;;;4.32;94.70
967;BME280;56108;48.730;9.304;2023-04-10T02:26:27;98078.22;;;4.30;94.60
967;BME280;56108;48.730;9.304;2023-04-10T02:28:36;98065.44;;;4.19;95.14
967;BME280;56108;48.730;9.304;2023-04-10T02:30:47;98076.38;;;4.32;95.61
967;BME280;56108;48.730;9.304;2023-04-10T02:32:55;98070.81;;;4.16;95.86
967;BME280;56108;48.730;9.304;2023-04-10T02:35:04;98070.94;;;4.13;96.39
967;BME280;56108;48.730;9.304;2023-04-10T02:37:14;98082.44;;;4.10;96.87
967;BME280;56108;48.730;9.304;2023-04-10T02:39:22;98073.84;;;4.05;97.32
967;BME280;56108;48.730;9.304;2023-04-10T02:41:30;98076.38;;;4.08;97.72
967;BME280;56108;48.730;9.304;2023-04-10T02:43:40;98077.50;;;4.01;97.44
967;BME280;56108;48.730;9.304;2023-04-10T02:45:51;98074.75;;;4.04;97.27
967;BME280;56108;48.730;9.304;2023-04-10T02:48:04;98077.50;;;4.01;98.03
967;BME280;56108;48.730;9.304;2023-04-10T02:50:12;98083.50;;;4.05;98.49
967;BME280;56108;48.730;9.304;2023-04-10T02:52:22;98081.34;;;3.91;98.18
967;BME280;56108;48.730;9.304;2023-04-10T02:54:31;98076.91;;;3.93;99.53
967;BME280;56108;48.730;9.304;2023-04-10T02:56:39;98081.25;;;3.94;98.31
967;BME280;56108;48.730;9.304;2023-04-10T02:58:47;98084.31;;;4.07;99.42
967;BME280;56108;48.730;9.304;2023-04-10T03:00:57;98084.50;;;4.02;98.84
967;BME280;56108;48.730;9.304;2023-04-10T03:03:15;98080.94;;;4.03;99.75
967;BME280;56108;48.730;9.304;2023-04-10T03:05:28;98080.88;;;4.05;99.31
967;BME280;56108;48.730;9.304;2023-04-10T03:07:36;98074.91;;;4.00;99.34
967;BME280;56108;48.730;9.304;2023-04-10T03:09:45;98092.19;;;4.08;98.66
967;BME280;56108;48.730;9.304;2023-04-10T03:11:53;98087.75;;;4.09;97.24
967;BME280;56108;48.730;9.304;2023-04-10T03:14:01;98081.25;;;3.94;98.08
967;BME280;56108;48.730;9.304;2023-04-10T03:16:12;98091.56;;;4.00;98.29
967;BME280;56108;48.730;9.304;2023-04-10T03:18:21;98090.31;;;3.87;100.00
967;BME280;56108;48.730;9.304;2023-04-10T03:20:31;98096.41;;;3.87;100.00
967;BME280;56108;48.730;9.304;2023-04-10T03:22:40;98088.63;;;3.84;99.54
967;BME280;56108;48.730;9.304;2023-04-10T03:24:48;98080.66;;;3.86;99.19
967;BME280;56108;48.730;9.304;2023-04-10T03:26:56;98090.47;;;3.81;99.07
967;BME280;56108;48.730;9.304;2023-04-10T03:29:04;98084.63;;;3.73;100.00
967;BME280;56108;48.730;9.304;2023-04-10T03:31:15;98074.31;;;3.66;100.00
967;BME280;56108;48.730;9.304;2023-04-10T03:33:23;98062.97;;;3.64;100.00
967;BME280;56108;48.730;9.304;2023-04-10T03:35:31;98060.31;;;3.66;100.00
967;BME280;56108;48.730;9.304;2023-04-10T03:37:39;98063.69;;;3.70;100.00
967;BME280;56108;48.730;9.304;2023-04-10T03:39:47;98068.91;;;3.71;99.61
967;BME280;56108;48.730;9.304;2023-04-10T03:41:55;98061.66;;;3.78;99.29
967;BME280;56108;48.730;9.304;2023-04-10T03:44:03;98061.81;;;3.98;97.85
967;BME280;56108;48.730;9.304;2023-04-10T03:46:11;98064.66;;;3.92;97.87
967;BME280;56108;48.730;9.304;2023-04-10T03:48:24;98065.06;;;3.81;98.63
967;BME280;56108;48.730;9.304;2023-04-10T03:50:34;98058.75;;;3.85;98.13
967;BME280;56108;48.730;9.304;2023-04-10T03:52:43;98061.38;;;3.85;98.58
967;BME280;56108;48.730;9.304;2023-04-10T03:54:55;98062.22;;;3.86;98.74
967;BME280;56108;48.730;9.304;2023-04-10T03:57:04;98056.94;;;3.87;98.01
967;BME280;56108;48.730;9.304;2023-04-10T03:59:12;98061.50;;;3.82;98.04
967;BME280;56108;48.730;9.304;2023-04-10T04:01:21;98054.16;;;3.90;97.94
967;BME280;56108;48.730;9.304;2023-04-10T04:03:46;98056.16;;;3.84;97.69
967;BME280;56108;48.730;9.304;2023-04-10T04:06:13;98054.41;;;3.84;97.27
967;BME280;56108;48.730;9.304;2023-04-10T04:08:51;98063.16;;;3.85;97.07
967;BME280;56108;48.730;9.304;2023-04-10T04:11:17;98058.09;;;3.79;97.20
967;BME280;56108;48.730;9.304;2023-04-10T04:13:38;98060.56;;;3.83;97.29
967;BME280;56108;48.730;9.304;2023-04-10T04:15:51;98058.88;;;3.82;96.92
967;BME280;56108;48.730;9.304;2023-04-10T04:18:15;98063.22;;;3.83;96.61
967;BME280;56108;48.730;9.304;2023-04-10T04:20:34;98054.22;;;3.89;97.17
967;BME280;56108;48.730;9.304;2023-04-10T04:23:07;98060.19;;;3.94;95.51
967;BME280;56108;48.730;9.304;2023-04-10T04:25:32;98050.13;;;3.80;96.66
967;BME280;56108;48.730;9.304;2023-04-10T04:27:56;98049.50;;;3.74;96.52
967;BME280;56108;48.730;9.304;2023-04-10T04:30:28;98044.25;;;3.74;98.15
967;BME280;56108;48.730;9.304;2023-04-10T04:33:05;98050.28;;;3.77;97.96
967;BME280;56108;48.730;9.304;2023-04-10T04:35:29;98047.94;;;3.68;97.73
967;BME280;56108;48.730;9.304;2023-04-10T04:37:59;98049.50;;;3.74;98.76
967;BME280;56108;48.730;9.304;2023-04-10T04:40:32;98054.28;;;3.87;98.53
967;BME280;56108;48.730;9.304;2023-04-10T04:42:55;98049.34;;;3.78;98.39
967;BME280;56108;48.730;9.304;2023-04-10T04:45:21;98049.56;;;3.72;98.13
967;BME280;56108;48.730;9.304;2023-04-10T04:48:05;98042.41;;;3.76;98.24
967;BME280;56108;48.730;9.304;2023-04-10T04:50:33;98040.75;;;3.73;98.44
967;BME280;56108;48.730;9.304;2023-04-10T04:52:55;98038.03;;;3.76;98.06
967;BME280;56108;48.730;9.304;2023-04-10T04:55:12;98044.00;;;3.81;97.75
967;BME280;56108;48.730;9.304;2023-04-10T04:57:33;98042.31;;;3.79;98.05
967;BME280;56108;48.730;9.304;2023-04-10T05:00:05;98042.69;;;3.93;97.46
967;BME280;56108;48.730;9.304;2023-04-10T05:02:36;98041.28;;;4.08;96.05
967;BME280;56108;48.730;9.304;2023-04-10T05:05:03;98044.66;;;4.35;93.09
967;BME280;56108;48.730;9.304;2023-04-10T05:07:22;98047.38;;;4.33;92.44
967;BME280;56108;48.730;9.304;2023-04-10T05:09:49;98036.63;;;4.38;92.76
967;BME280;56108;48.730;9.304;2023-04-10T05:12:00;98046.91;;;4.45;91.33
967;BME280;56108;48.730;9.304;2023-04-10T05:14:27;98050.44;;;4.68;89.91
967;BME280;56108;48.730;9.304;2023-04-10T05:16:42;98047.69;;;4.93;87.59
967;BME280;56108;48.730;9.304;2023-04-10T05:18:56;98046.47;;;5.23;85.76
967;BME280;56108;48.730;9.304;2023-04-10T05:21:36;98052.91;;;5.79;83.48
967;BME280;56108;48.730;9.304;2023-04-10T05:24:00;98059.34;;;6.14;80.06
967;BME280;56108;48.730;9.304;2023-04-10T05:26:25;98057.28;;;6.60;78.00
967;BME280;56108;48.730;9.304;2023-04-10T05:28:49;98063.09;;;7.23;72.11
967;BME280;56108;48.730;9.304;2023-04-10T05:31:07;98060.88;;;7.50;70.14
967;BME280;56108;48.730;9.304;2023-04-10T05:33:15;98066.03;;;7.88;66.84
967;BME280;56108;48.730;9.304;2023-04-10T05:35:40;98078.97;;;8.46;64.63
967;BME280;56108;48.730;9.304;2023-04-10T05:38:18;98084.44;;;8.59;62.19
967;BME280;56108;48.730;9.304;2023-04-10T05:40:46;98084.19;;;8.30;62.73
967;BME280;56108;48.730;9.304;2023-04-10T05:43:13;98092.03;;;8.82;60.97
967;BME280;56108;48.730;9.304;2023-04-10T05:45:38;98095.03;;;9.08;59.15
967;BME280;56108;48.730;9.304;2023-04-10T05:48:19;98089.31;;;9.00;58.75
967;BME280;56108;48.730;9.304;2023-04-10T05:50:48;98089.91;;;8.89;59.02
967;BME280;56108;48.730;9.304;2023-04-10T05:53:27;98096.94;;;9.22;58.70
967;BME280;56108;48.730;9.304;2023-04-10T05:56:13;98104.34;;;9.62;56.41
967;BME280;56108;48.730;9.304;2023-04-10T05:58:40;98111.56;;;10.20;54.95
967;BME280;56108;48.730;9.304;2023-04-10T06:00:54;98122.41;;;11.19;52.75
967;BME280;56108;48.730;9.304;2023-04-10T06:03:22;98132.38;;;12.76;48.23
967;BME280;56108;48.730;9.304;2023-04-10T06:05:35;98143.59;;;12.94;46.41
967;BME280;56108;48.730;9.304;2023-04-10T06:07:44;98143.41;;;12.59;46.51
967;BME280;56108;48.730;9.304;2023-04-10T06:09:52;98128.44;;;12.82;48.21
967;BME280;56108;48.730;9.304;2023-04-10T06:12:00;98147.97;;;13.33;45.96
967;BME280;56108;48.730;9.304;2023-04-10T06:14:08;98140.19;;;12.79;45.89
967;BME280;56108;48.730;9.304;2023-04-10T06:16:23;98143.00;;;12.12;47.29
967;BME280;56108;48.730;9.304;2023-04-10T06:18:31;98147.97;;;13.07;45.78
967;BME280;56108;48.730;9.304;2023-04-10T06:20:40;98152.88;;;12.88;45.27
967;BME280;56108;48.730;9.304;2023-04-10T06:22:48;98132.91;;;12.56;45.86
967;BME280;56108;48.730;9.304;2023-04-10T06:24:59;98132.94;;;12.16;46.58
967;BME280;56108;48.730;9.304;2023-04-10T06:27:06;98134.00;;;12.53;46.53
967;BME280;56108;48.730;9.304;2023-04-10T06:31:26;98135.13;;;12.23;46.42
967;BME280;56108;48.730;9.304;2023-04-10T06:33:34;98133.75;;;11.91;47.04
967;BME280;56108;48.730;9.304;2023-04-10T06:35:44;98129.28;;;12.04;47.25
967;BME280;56108;48.730;9.304;2023-04-10T06:37:52;98133.28;;;12.24;46.93
967;BME280;56108;48.730;9.304;2023-04-10T06:40:06;98134.09;;;12.90;45.24
967;BME280;56108;48.730;9.304;2023-04-10T06:42:14;98140.19;;;12.79;45.49
967;BME280;56108;48.730;9.304;2023-04-10T06:44:37;98139.09;;;12.56;45.88
967;BME280;56108;48.730;9.304;2023-04-10T06:46:47;98142.44;;;12.60;45.47
967;BME280;56108;48.730;9.304;2023-04-10T06:48:55;98158.28;;;13.63;43.01
967;BME280;56108;48.730;9.304;2023-04-10T06:51:05;98146.03;;;12.84;44.06
967;BME280;56108;48.730;9.304;2023-04-10T06:53:13;98141.69;;;13.21;44.86
967;BME280;56108;48.730;9.304;2023-04-10T06:55:21;98144.44;;;13.69;43.55
967;BME280;56108;48.730;9.304;2023-04-10T06:57:28;98139.31;;;13.17;43.79
967;BME280;56108;48.730;9.304;2023-04-10T06:59:36;98145.97;;;14.08;42.03
967;BME280;56108;48.730;9.304;2023-04-10T07:01:47;98152.38;;;14.30;41.58
967;BME280;56108;48.730;9.304;2023-04-10T07:03:55;98157.88;;;14.64;40.33
967;BME280;56108;48.730;9.304;2023-04-10T07:06:03;98147.34;;;14.84;40.30
967;BME280;56108;48.730;9.304;2023-04-10T07:08:12;98156.63;;;14.21;40.36
967;BME280;56108;48.730;9.304;2023-04-10T07:10:20;98150.84;;;14.15;41.01
967;BME280;56108;48.730;9.304;2023-04-10T07:12:28;98152.56;;;14.86;39.70
967;BME280;56108;48.730;9.304;2023-04-10T07:14:36;98159.88;;;15.62;38.61
967;BME280;56108;48.730;9.304;2023-04-10T07:16:48;98157.38;;;16.04;38.12
967;BME280;56108;48.730;9.304;2023-04-10T07:18:57;98173.91;;;17.77;34.58
967;BME280;56108;48.730;9.304;2023-04-10T07:21:09;98160.94;;;17.00;35.63
967;BME280;56108;48.730;9.304;2023-04-10T07:23:18;98146.53;;;15.95;36.68
967;BME280;56108;48.730;9.304;2023-04-10T07:25:26;98138.50;;;16.48;36.83
967;BME280;56108;48.730;9.304;2023-04-10T07:27:34;98137.25;;;16.31;36.48
967;BME280;56108;48.730;9.304;2023-04-10T07:29:42;98137.09;;;16.85;36.29
967;BME280;56108;48.730;9.304;2023-04-10T07:31:53;98142.09;;;16.37;36.63
967;BME280;56108;48.730;9.304;2023-04-10T07:34:01;98144.38;;;15.55;38.29
967;BME280;56108;48.730;9.304;2023-04-10T07:36:09;98138.44;;;16.38;36.48
967;BME280;56108;48.730;9.304;2023-04-10T07:38:21;98136.88;;;15.26;38.21
967;BME280;56108;48.730;9.304;2023-04-10T07:40:28;98133.28;;;16.67;36.78
967;BME280;56108;48.730;9.304;2023-04-10T07:42:36;98138.53;;;16.15;36.88
967;BME280;56108;48.730;9.304;2023-04-10T07:44:44;98137.09;;;15.46;39.23
967;BME280;56108;48.730;9.304;2023-04-10T07:46:55;98125.41;;;13.61;41.25
967;BME280;56108;48.730;9.304;2023-04-10T07:49:03;98110.06;;;12.51;44.45
967;BME280;56108;48.730;9.304;2023-04-10T07:51:12;98102.59;;;11.91;46.04
967;BME280;56108;48.730;9.304;2023-04-10T07:53:20;98103.34;;;11.93;46.13
967;BME280;56108;48.730;9.304;2023-04-10T07:55:28;98098.44;;;11.73;46.89
967;BME280;56108;48.730;9.304;2023-04-10T07:57:36;98093.19;;;11.86;47.23
967;BME280;56108;48.730;9.304;2023-04-10T07:59:46;98094.06;;;11.99;46.86
967;BME280;56108;48.730;9.304;2023-04-10T08:01:56;98093.28;;;12.24;47.17
967;BME280;56108;48.730;9.304;2023-04-10T08:04:04;98093.38;;;12.22;47.65
967;BME280;56108;48.730;9.304;2023-04-10T08:06:12;98078.78;;;11.61;48.93
967;BME280;56108;48.730;9.304;2023-04-10T08:08:22;98082.59;;;11.57;49.01
967;BME280;56108;48.730;9.304;2023-04-10T08:10:30;98078.13;;;11.85;48.48
967;BME280;56108;48.730;9.304;2023-04-10T08:12:38;98086.47;;;11.93;48.28
967;BME280;56108;48.730;9.304;2023-04-10T08:14:46;98085.88;;;11.75;47.88
967;BME280;56108;48.730;9.304;2023-04-10T08:16:58;98081.81;;;11.69;48.04
967;BME280;56108;48.730;9.304;2023-04-10T08:19:06;98081.09;;;11.53;48.11
967;BME280;56108;48.730;9.304;2023-04-10T08:21:14;98073.03;;;11.82;48.36
967;BME280;56108;48.730;9.304;2023-04-10T08:23:22;98084.13;;;11.61;47.02
967;BME280;56108;48.730;9.304;2023-04-10T08:25:29;98083.81;;;11.66;46.71
967;BME280;56108;48.730;9.304;2023-04-10T08:27:37;98079.59;;;11.76;47.42
967;BME280;56108;48.730;9.304;2023-04-10T08:29:45;98090.47;;;12.25;46.20
967;BME280;56108;48.730;9.304;2023-04-10T08:31:53;98092.00;;;12.42;44.92
967;BME280;56108;48.730;9.304;2023-04-10T08:34:07;98088.03;;;12.73;44.44
967;BME280;56108;48.730;9.304;2023-04-10T08:36:15;98093.19;;;12.64;43.17
967;BME280;56108;48.730;9.304;2023-04-10T08:38:24;98092.66;;;12.59;42.39
967;BME280;56108;48.730;9.304;2023-04-10T08:40:36;98098.53;;;12.51;41.57
967;BME280;56108;48.730;9.304;2023-04-10T08:42:44;98090.06;;;12.32;43.30
967;BME280;56108;48.730;9.304;2023-04-10T08:44:51;98093.38;;;12.35;42.13
967;BME280;56108;48.730;9.304;2023-04-10T08:47:00;98090.28;;;12.28;42.70
967;BME280;56108;48.730;9.304;2023-04-10T08:49:16;98082.38;;;12.52;43.19
967;BME280;56108;48.730;9.304;2023-04-10T08:51:28;98088.16;;;12.85;43.15
967;BME280;56108;48.730;9.304;2023-04-10T08:53:40;98091.38;;;12.90;42.33
967;BME280;56108;48.730;9.304;2023-04-10T08:55:50;98092.31;;;12.76;42.67
967;BME280;56108;48.730;9.304;2023-04-10T08:57:58;98081.06;;;13.22;44.12
967;BME280;56108;48.730;9.304;2023-04-10T09:00:08;98077.03;;;12.91;44.26
967;BME280;56108;48.730;9.304;2023-04-10T09:02:27;98084.09;;;12.79;43.28
967;BME280;56108;48.730;9.304;2023-04-10T09:04:38;98082.50;;;12.51;43.42
967;BME280;56108;48.730;9.304;2023-04-10T09:06:46;98082.28;;;12.41;43.36
967;BME280;56108;48.730;9.304;2023-04-10T09:08:54;98068.28;;;12.76;44.28
967;BME280;56108;48.730;9.304;2023-04-10T09:11:05;98087.19;;;12.73;41.41
967;BME280;56108;48.730;9.304;2023-04-10T09:13:13;98076.16;;;13.03;42.99
967;BME280;56108;48.730;9.304;2023-04-10T09:15:21;98068.84;;;13.18;43.41
967;BME280;56108;48.730;9.304;2023-04-10T09:17:29;98081.41;;;13.41;40.96
967;BME280;56108;48.730;9.304;2023-04-10T09:19:40;98070.91;;;13.51;42.19
967;BME280;56108;48.730;9.304;2023-04-10T09:21:49;98083.16;;;14.36;39.44
967;BME280;56108;48.730;9.304;2023-04-10T09:23:59;98091.50;;;15.46;36.78
967;BME280;56108;48.730;9.304;2023-04-10T09:26:25;98098.31;;;15.50;35.73
967;BME280;56108;48.730;9.304;2023-04-10T09:28:54;98091.66;;;15.22;35.39
967;BME280;56108;48.730;9.304;2023-04-10T09:31:26;98097.84;;;15.67;35.96
967;BME280;56108;48.730;9.304;2023-04-10T09:33:34;98092.25;;;15.91;35.38
967;BME280;56108;48.730;9.304;2023-04-10T09:35:44;98081.09;;;16.69;34.82
967;BME280;56108;48.730;9.304;2023-04-10T09:37:52;98089.31;;;17.29;33.56
967;BME280;56108;48.730;9.304;2023-04-10T09:40:01;98086.16;;;18.81;31.61
967;BME280;56108;48.730;9.304;2023-04-10T09:42:10;98095.13;;;18.42;31.16
967;BME280;56108;48.730;9.304;2023-04-10T09:44:28;98092.06;;;20.04;28.69
967;BME280;56108;48.730;9.304;2023-04-10T09:46:36;98094.50;;;19.62;28.22
967;BME280;56108;48.730;9.304;2023-04-10T09:48:53;98088.25;;;19.61;28.15
967;BME280;56108;48.730;9.304;2023-04-10T09:51:06;98080.22;;;18.58;28.72
967;BME280;56108;48.730;9.304;2023-04-10T09:53:15;98066.88;;;18.56;30.02
967;BME280;56108;48.730;9.304;2023-04-10T09:55:24;98070.28;;;18.58;29.17
967;BME280;56108;48.730;9.304;2023-04-10T09:57:33;98052.56;;;18.75;29.18
967;BME280;56108;48.730;9.304;2023-04-10T09:59:42;98040.38;;;19.63;28.88
967;BME280;56108;48.730;9.304;2023-04-10T10:01:54;98040.88;;;19.67;28.94
967;BME280;56108;48.730;9.304;2023-04-10T10:04:03;98036.59;;;19.92;28.50
967;BME280;56108;48.730;9.304;2023-04-10T10:06:14;98041.03;;;20.19;28.46
967;BME280;56108;48.730;9.304;2023-04-10T10:08:22;98039.25;;;20.27;27.42
967;BME280;56108;48.730;9.304;2023-04-10T10:10:30;98038.28;;;20.11;27.17
967;BME280;56108;48.730;9.304;2023-04-10T10:12:43;98034.16;;;18.98;27.71
967;BME280;56108;48.730;9.304;2023-04-10T10:14:59;98028.06;;;20.04;27.31
967;BME280;56108;48.730;9.304;2023-04-10T10:17:09;98035.72;;;19.28;28.80
967;BME280;56108;48.730;9.304;2023-04-10T10:19:36;98028.16;;;19.59;27.80
967;BME280;56108;48.730;9.304;2023-04-10T10:21:50;98014.34;;;19.35;28.11
967;BME280;56108;48.730;9.304;2023-04-10T10:23:59;98018.16;;;18.30;29.24
967;BME280;56108;48.730;9.304;2023-04-10T10:26:08;98021.00;;;18.85;29.00
967;BME280;56108;48.730;9.304;2023-04-10T10:28:18;98022.59;;;18.68;28.75
967;BME280;56108;48.730;9.304;2023-04-10T10:30:26;98011.06;;;18.19;29.16
967;BME280;56108;48.730;9.304;2023-04-10T10:32:34;98004.88;;;19.03;28.79
967;BME280;56108;48.730;9.304;2023-04-10T10:34:43;98010.97;;;18.58;28.21
967;BME280;56108;48.730;9.304;2023-04-10T10:36:53;98004.03;;;18.75;28.94
967;BME280;56108;48.730;9.304;2023-04-10T10:39:17;97991.28;;;17.82;29.67
967;BME280;56108;48.730;9.304;2023-04-10T10:41:33;97994.66;;;18.13;29.67
967;BME280;56108;48.730;9.304;2023-04-10T10:43:51;97982.19;;;18.12;29.57
967;BME280;56108;48.730;9.304;2023-04-10T10:46:02;97989.13;;;17.85;29.63
967;BME280;56108;48.730;9.304;2023-04-10T10:48:11;97986.13;;;18.27;29.81
967;BME280;56108;48.730;9.304;2023-04-10T10:50:19;97984.81;;;18.78;28.09
967;BME280;56108;48.730;9.304;2023-04-10T10:52:55;97973.84;;;19.17;28.92
967;BME280;56108;48.730;9.304;2023-04-10T10:55:32;97965.47;;;19.38;26.89
967;BME280;56108;48.730;9.304;2023-04-10T10:57:47;97977.09;;;18.56;27.42
967;BME280;56108;48.730;9.304;2023-04-10T10:59:55;97973.94;;;18.23;27.70
967;BME280;56108;48.730;9.304;2023-04-10T11:02:13;97964.72;;;18.63;27.79
967;BME280;56108;48.730;9.304;2023-04-10T11:04:41;97952.97;;;17.68;30.49
967;BME280;56108;48.730;9.304;2023-04-10T11:06:50;97944.44;;;17.05;30.59
967;BME280;56108;48.730;9.304;2023-04-10T11:09:01;97962.34;;;17.84;30.57
967;BME280;56108;48.730;9.304;2023-04-10T11:11:11;97953.13;;;17.28;29.54
967;BME280;56108;48.730;9.304;2023-04-10T11:13:20;97957.81;;;17.74;29.07
967;BME280;56108;48.730;9.304;2023-04-10T11:15:28;97957.34;;;18.18;28.27
967;BME280;56108;48.730;9.304;2023-04-10T11:17:48;97947.03;;;18.04;29.47
967;BME280;56108;48.730;9.304;2023-04-10T11:19:59;97952.13;;;17.48;29.18
967;BME280;56108;48.730;9.304;2023-04-10T11:22:08;97946.19;;;17.84;29.66
967;BME280;56108;48.730;9.304;2023-04-10T11:24:21;97947.47;;;17.41;27.99
967;BME280;56108;48.730;9.304;2023-04-10T11:26:39;97933.97;;;17.02;29.55
967;BME280;56108;48.730;9.304;2023-04-10T11:28:47;97937.69;;;17.30;27.87
967;BME280;56108;48.730;9.304;2023-04-10T11:31:03;97943.34;;;17.27;27.43
967;BME280;56108;48.730;9.304;2023-04-10T11:33:20;97936.63;;;16.92;26.53
967;BME280;56108;48.730;9.304;2023-04-10T11:35:28;97938.81;;;17.57;27.28
967;BME280;56108;48.730;9.304;2023-04-10T11:37:37;97941.50;;;17.95;26.56
967;BME280;56108;48.730;9.304;2023-04-10T11:39:48;97935.16;;;17.87;26.66
967;BME280;56108;48.730;9.304;2023-04-10T11:41:56;97934.94;;;18.27;26.59
967;BME280;56108;48.730;9.304;2023-04-10T11:44:07;97932.81;;;18.58;27.82
967;BME280;56108;48.730;9.304;2023-04-10T11:46:16;97942.31;;;18.15;25.13
967;BME280;56108;48.730;9.304;2023-04-10T11:48:24;97941.16;;;18.28;24.69
967;BME280;56108;48.730;9.304;2023-04-10T11:50:32;97951.72;;;17.82;22.57
967;BME280;56108;48.730;9.304;2023-04-10T11:52:40;97949.91;;;17.73;23.82
967;BME280;56108;48.730;9.304;2023-04-10T11:54:50;97950.59;;;17.85;23.36
967;BME280;56108;48.730;9.304;2023-04-10T11:57:01;97949.84;;;18.12;23.37
967;BME280;56108;48.730;9.304;2023-04-10T11:59:09;97946.19;;;18.03;24.10
967;BME280;56108;48.730;9.304;2023-04-10T12:01:20;97943.19;;;18.06;24.25
967;BME280;56108;48.730;9.304;2023-04-10T12:03:36;97943.34;;;18.05;23.93
967;BME280;56108;48.730;9.304;2023-04-10T12:05:45;97936.59;;;17.81;23.47
967;BME280;56108;48.730;9.304;2023-04-10T12:07:53;97923.38;;;17.97;24.50
967;BME280;56108;48.730;9.304;2023-04-10T12:10:06;97915.88;;;17.43;24.00
967;BME280;56108;48.730;9.304;2023-04-10T12:12:14;97916.72;;;17.53;25.05